sensor_id;sensor_type;location;lat;lon;timestamp;P1;durP1;ratioP1;P2;durP2;ratioP2
73938;SDS011;62291;47.554;8.504;2022-10-16T00:01:18;30.92;;;7.68;;
73938;SDS011;62291;47.554;8.504;2022-10-16T00:03:46;92.47;;;9.80;;
73938;SDS011;62291;47.554;8.504;2022-10-16T00:06:13;50.75;;;7.18;;
73938;SDS011;62291;47.554;8.504;2022-10-16T00:08:40;9.25;;;5.55;;
73938;SDS011;62291;47.554;8.504;2022-10-16T00:11:13;11.55;;;6.20;;
73938;SDS011;62291;47.554;8.504;2022-10-16T00:13:42;9.15;;;5.75;;
73938;SDS011;62291;47.554;8.504;2022-10-16T00:16:09;9.45;;;6.80;;
73938;SDS011;62291;47.554;8.504;2022-10-16T00:18:36;6.78;;;5.28;;
73938;SDS011;62291;47.554;8.504;2022-10-16T00:21:03;9.75;;;5.95;;
73938;SDS011;62291;47.554;8.504;2022-10-16T00:23:35;10.88;;;6.50;;
73938;SDS011;62291;47.554;8.504;2022-10-16T00:26:03;9.25;;;6.05;;
73938;SDS011;62291;47.554;8.504;2022-10-16T00:28:31;13.20;;;6.63;;
73938;SDS011;62291;47.554;8.504;2022-10-16T00:30:57;21.30;;;7.10;;
73938;SDS011;62291;47.554;8.504;2022-10-16T00:33:23;43.70;;;9.10;;
73938;SDS011;62291;47.554;8.504;2022-10-16T00:35:49;43.40;;;7.65;;
73938;SDS011;62291;47.554;8.504;2022-10-16T00:38:15;26.30;;;7.35;;
73938;SDS011;62291;47.554;8.504;2022-10-16T00:40:42;90.70;;;9.05;;
73938;SDS011;62291;47.554;8.504;2022-10-16T00:43:31;277.25;;;15.77;;
73938;SDS011;62291;47.554;8.504;2022-10-16T00:46:08;205.00;;;14.65;;
73938;SDS011;62291;47.554;8.504;2022-10-16T00:48:40;47.60;;;8.30;;
73938;SDS011;62291;47.554;8.504;2022-10-16T00:51:10;38.92;;;8.02;;
73938;SDS011;62291;47.554;8.504;2022-10-16T00:53:36;26.50;;;7.55;;
73938;SDS011;62291;47.554;8.504;2022-10-16T00:56:02;18.40;;;7.35;;
73938;SDS011;62291;47.554;8.504;2022-10-16T00:58:28;55.60;;;8.45;;
73938;SDS011;62291;47.554;8.504;2022-10-16T01:00:54;26.77;;;8.32;;
73938;SDS011;62291;47.554;8.504;2022-10-16T01:03:31;27.67;;;6.40;;
73938;SDS011;62291;47.554;8.504;2022-10-16T01:06:05;42.08;;;7.70;;
73938;SDS011;62291;47.554;8.504;2022-10-16T01:14:00;7.32;;;4.90;;
73938;SDS011;62291;47.554;8.504;2022-10-16T01:16:44;20.48;;;6.93;;
73938;SDS011;62291;47.554;8.504;2022-10-16T01:22:27;56.85;;;10.10;;
73938;SDS011;62291;47.554;8.504;2022-10-16T01:25:21;182.98;;;14.50;;
73938;SDS011;62291;47.554;8.504;2022-10-16T01:27:55;215.70;;;14.35;;
73938;SDS011;62291;47.554;8.504;2022-10-16T01:30:23;438.40;;;21.15;;
73938;SDS011;62291;47.554;8.504;2022-10-16T01:32:55;51.60;;;9.35;;
73938;SDS011;62291;47.554;8.504;2022-10-16T01:35:29;150.77;;;14.43;;
73938;SDS011;62291;47.554;8.504;2022-10-16T01:40:47;51.03;;;9.20;;
73938;SDS011;62291;47.554;8.504;2022-10-16T01:43:19;80.07;;;12.30;;
73938;SDS011;62291;47.554;8.504;2022-10-16T01:45:49;36.38;;;10.48;;
73938;SDS011;62291;47.554;8.504;2022-10-16T01:48:18;29.13;;;8.82;;
73938;SDS011;62291;47.554;8.504;2022-10-16T01:50:50;14.07;;;8.48;;
73938;SDS011;62291;47.554;8.504;2022-10-16T01:53:22;168.23;;;17.65;;
73938;SDS011;62291;47.554;8.504;2022-10-16T01:55:50;249.00;;;21.63;;
73938;SDS011;62291;47.554;8.504;2022-10-16T01:58:19;220.38;;;15.00;;
73938;SDS011;62291;47.554;8.504;2022-10-16T02:00:46;80.00;;;11.02;;
73938;SDS011;62291;47.554;8.504;2022-10-16T02:03:13;175.75;;;14.30;;
73938;SDS011;62291;47.554;8.504;2022-10-16T02:05:50;203.23;;;15.60;;
73938;SDS011;62291;47.554;8.504;2022-10-16T02:08:19;151.98;;;14.25;;
73938;SDS011;62291;47.554;8.504;2022-10-16T02:10:47;191.50;;;18.48;;
73938;SDS011;62291;47.554;8.504;2022-10-16T02:13:15;48.13;;;11.32;;
73938;SDS011;62291;47.554;8.504;2022-10-16T02:15:48;51.15;;;11.55;;
73938;SDS011;62291;47.554;8.504;2022-10-16T02:18:14;68.97;;;12.57;;
73938;SDS011;62291;47.554;8.504;2022-10-16T02:21:02;176.70;;;14.40;;
73938;SDS011;62291;47.554;8.504;2022-10-16T02:23:47;251.25;;;15.68;;
73938;SDS011;62291;47.554;8.504;2022-10-16T02:29:08;301.13;;;19.35;;
73938;SDS011;62291;47.554;8.504;2022-10-16T02:31:41;554.25;;;28.45;;
73938;SDS011;62291;47.554;8.504;2022-10-16T02:34:12;127.05;;;13.88;;
73938;SDS011;62291;47.554;8.504;2022-10-16T02:36:39;236.88;;;16.67;;
73938;SDS011;62291;47.554;8.504;2022-10-16T02:39:06;451.85;;;20.85;;
73938;SDS011;62291;47.554;8.504;2022-10-16T02:41:34;192.52;;;13.90;;
73938;SDS011;62291;47.554;8.504;2022-10-16T02:43:59;291.08;;;17.60;;
73938;SDS011;62291;47.554;8.504;2022-10-16T02:46:25;219.40;;;15.50;;
73938;SDS011;62291;47.554;8.504;2022-10-16T02:48:51;208.20;;;14.68;;
73938;SDS011;62291;47.554;8.504;2022-10-16T02:51:17;64.22;;;11.25;;
73938;SDS011;62291;47.554;8.504;2022-10-16T02:53:42;86.50;;;11.63;;
73938;SDS011;62291;47.554;8.504;2022-10-16T02:56:08;25.73;;;8.40;;
73938;SDS011;62291;47.554;8.504;2022-10-16T02:58:34;503.60;;;27.63;;
73938;SDS011;62291;47.554;8.504;2022-10-16T03:01:00;18.33;;;8.52;;
73938;SDS011;62291;47.554;8.504;2022-10-16T03:03:25;576.65;;;27.58;;
73938;SDS011;62291;47.554;8.504;2022-10-16T03:05:51;554.17;;;25.88;;
73938;SDS011;62291;47.554;8.504;2022-10-16T03:08:17;248.77;;;17.33;;
73938;SDS011;62291;47.554;8.504;2022-10-16T03:10:48;188.77;;;15.90;;
73938;SDS011;62291;47.554;8.504;2022-10-16T03:13:17;506.65;;;28.55;;
73938;SDS011;62291;47.554;8.504;2022-10-16T03:15:45;203.45;;;16.92;;
73938;SDS011;62291;47.554;8.504;2022-10-16T03:18:11;439.20;;;24.38;;
73938;SDS011;62291;47.554;8.504;2022-10-16T03:20:36;294.02;;;17.05;;
73938;SDS011;62291;47.554;8.504;2022-10-16T03:23:02;296.08;;;19.98;;
73938;SDS011;62291;47.554;8.504;2022-10-16T03:25:28;397.42;;;23.25;;
73938;SDS011;62291;47.554;8.504;2022-10-16T03:27:54;536.28;;;36.17;;
73938;SDS011;62291;47.554;8.504;2022-10-16T03:30:19;562.10;;;41.20;;
73938;SDS011;62291;47.554;8.504;2022-10-16T03:32:45;278.10;;;28.73;;
73938;SDS011;62291;47.554;8.504;2022-10-16T03:35:12;588.42;;;35.65;;
73938;SDS011;62291;47.554;8.504;2022-10-16T03:37:38;554.17;;;32.35;;
73938;SDS011;62291;47.554;8.504;2022-10-16T03:40:04;839.03;;;41.30;;
73938;SDS011;62291;47.554;8.504;2022-10-16T03:42:30;576.92;;;35.03;;
73938;SDS011;62291;47.554;8.504;2022-10-16T03:44:56;667.40;;;37.10;;
73938;SDS011;62291;47.554;8.504;2022-10-16T03:47:21;841.88;;;43.47;;
73938;SDS011;62291;47.554;8.504;2022-10-16T03:49:48;360.80;;;23.73;;
73938;SDS011;62291;47.554;8.504;2022-10-16T03:52:14;493.40;;;27.08;;
73938;SDS011;62291;47.554;8.504;2022-10-16T03:54:40;584.35;;;31.48;;
73938;SDS011;62291;47.554;8.504;2022-10-16T03:57:06;440.38;;;25.13;;
73938;SDS011;62291;47.554;8.504;2022-10-16T03:59:32;508.73;;;31.98;;
73938;SDS011;62291;47.554;8.504;2022-10-16T04:01:57;267.05;;;19.10;;
73938;SDS011;62291;47.554;8.504;2022-10-16T04:04:23;334.27;;;25.58;;
73938;SDS011;62291;47.554;8.504;2022-10-16T04:06:50;330.95;;;23.92;;
73938;SDS011;62291;47.554;8.504;2022-10-16T04:09:16;316.02;;;24.33;;
73938;SDS011;62291;47.554;8.504;2022-10-16T04:11:42;298.05;;;23.15;;
73938;SDS011;62291;47.554;8.504;2022-10-16T04:14:07;203.07;;;18.63;;
73938;SDS011;62291;47.554;8.504;2022-10-16T04:16:33;156.88;;;17.52;;
73938;SDS011;62291;47.554;8.504;2022-10-16T04:18:59;193.02;;;16.90;;
73938;SDS011;62291;47.554;8.504;2022-10-16T04:21:26;170.57;;;17.48;;
73938;SDS011;62291;47.554;8.504;2022-10-16T04:23:51;352.90;;;25.25;;
73938;SDS011;62291;47.554;8.504;2022-10-16T04:26:17;410.20;;;27.30;;
73938;SDS011;62291;47.554;8.504;2022-10-16T04:28:43;346.42;;;27.15;;
73938;SDS011;62291;47.554;8.504;2022-10-16T04:31:09;344.30;;;26.13;;
73938;SDS011;62291;47.554;8.504;2022-10-16T04:33:34;209.23;;;21.45;;
73938;SDS011;62291;47.554;8.504;2022-10-16T04:36:00;138.52;;;17.83;;
73938;SDS011;62291;47.554;8.504;2022-10-16T04:38:28;215.80;;;21.52;;
73938;SDS011;62291;47.554;8.504;2022-10-16T04:40:54;219.98;;;21.05;;
73938;SDS011;62291;47.554;8.504;2022-10-16T04:43:20;92.45;;;17.10;;
73938;SDS011;62291;47.554;8.504;2022-10-16T04:45:46;98.07;;;14.77;;
73938;SDS011;62291;47.554;8.504;2022-10-16T04:48:12;112.93;;;15.52;;
73938;SDS011;62291;47.554;8.504;2022-10-16T04:50:38;29.13;;;11.57;;
73938;SDS011;62291;47.554;8.504;2022-10-16T04:53:04;60.08;;;12.23;;
73938;SDS011;62291;47.554;8.504;2022-10-16T04:55:31;87.15;;;12.10;;
73938;SDS011;62291;47.554;8.504;2022-10-16T04:57:56;139.32;;;14.10;;
73938;SDS011;62291;47.554;8.504;2022-10-16T05:00:22;262.77;;;18.73;;
73938;SDS011;62291;47.554;8.504;2022-10-16T05:02:49;260.08;;;16.75;;
73938;SDS011;62291;47.554;8.504;2022-10-16T05:05:15;146.35;;;13.95;;
73938;SDS011;62291;47.554;8.504;2022-10-16T05:07:42;60.05;;;12.32;;
73938;SDS011;62291;47.554;8.504;2022-10-16T05:10:07;56.65;;;11.20;;
73938;SDS011;62291;47.554;8.504;2022-10-16T05:12:33;41.47;;;10.10;;
73938;SDS011;62291;47.554;8.504;2022-10-16T05:14:59;46.08;;;10.50;;
73938;SDS011;62291;47.554;8.504;2022-10-16T05:17:25;153.18;;;13.52;;
73938;SDS011;62291;47.554;8.504;2022-10-16T05:19:51;52.22;;;10.27;;
73938;SDS011;62291;47.554;8.504;2022-10-16T05:22:17;153.23;;;12.77;;
73938;SDS011;62291;47.554;8.504;2022-10-16T05:24:43;157.48;;;13.80;;
73938;SDS011;62291;47.554;8.504;2022-10-16T05:27:09;284.45;;;16.70;;
73938;SDS011;62291;47.554;8.504;2022-10-16T05:29:35;161.15;;;14.30;;
73938;SDS011;62291;47.554;8.504;2022-10-16T05:32:01;227.70;;;13.43;;
73938;SDS011;62291;47.554;8.504;2022-10-16T05:34:27;184.27;;;14.50;;
73938;SDS011;62291;47.554;8.504;2022-10-16T05:36:53;212.85;;;16.50;;
73938;SDS011;62291;47.554;8.504;2022-10-16T05:39:19;99.32;;;12.00;;
73938;SDS011;62291;47.554;8.504;2022-10-16T05:41:44;132.68;;;13.68;;
73938;SDS011;62291;47.554;8.504;2022-10-16T05:44:10;91.50;;;11.73;;
73938;SDS011;62291;47.554;8.504;2022-10-16T05:46:36;43.22;;;8.35;;
73938;SDS011;62291;47.554;8.504;2022-10-16T05:49:02;82.65;;;9.45;;
73938;SDS011;62291;47.554;8.504;2022-10-16T05:51:28;131.32;;;12.02;;
73938;SDS011;62291;47.554;8.504;2022-10-16T05:53:53;61.55;;;7.85;;
73938;SDS011;62291;47.554;8.504;2022-10-16T05:56:19;15.80;;;6.18;;
73938;SDS011;62291;47.554;8.504;2022-10-16T05:58:45;148.30;;;11.43;;
73938;SDS011;62291;47.554;8.504;2022-10-16T06:01:12;169.93;;;12.73;;
73938;SDS011;62291;47.554;8.504;2022-10-16T06:03:39;181.63;;;13.02;;
73938;SDS011;62291;47.554;8.504;2022-10-16T06:06:15;88.03;;;9.07;;
73938;SDS011;62291;47.554;8.504;2022-10-16T06:08:43;31.40;;;8.32;;
73938;SDS011;62291;47.554;8.504;2022-10-16T06:11:11;182.20;;;11.70;;
73938;SDS011;62291;47.554;8.504;2022-10-16T06:13:39;225.48;;;13.55;;
73938;SDS011;62291;47.554;8.504;2022-10-16T06:16:07;45.95;;;8.45;;
73938;SDS011;62291;47.554;8.504;2022-10-16T06:18:34;15.07;;;7.60;;
73938;SDS011;62291;47.554;8.504;2022-10-16T06:21:06;15.20;;;10.43;;
73938;SDS011;62291;47.554;8.504;2022-10-16T06:23:37;140.68;;;17.42;;
73938;SDS011;62291;47.554;8.504;2022-10-16T06:26:09;21.27;;;10.00;;
73938;SDS011;62291;47.554;8.504;2022-10-16T06:28:36;28.10;;;8.52;;
73938;SDS011;62291;47.554;8.504;2022-10-16T06:31:03;10.38;;;6.18;;
73938;SDS011;62291;47.554;8.504;2022-10-16T06:33:29;12.63;;;6.90;;
73938;SDS011;62291;47.554;8.504;2022-10-16T06:36:28;11.18;;;7.00;;
73938;SDS011;62291;47.554;8.504;2022-10-16T06:41:14;8.32;;;6.45;;
73938;SDS011;62291;47.554;8.504;2022-10-16T06:43:41;28.00;;;7.40;;
73938;SDS011;62291;47.554;8.504;2022-10-16T06:46:10;247.10;;;15.25;;
73938;SDS011;62291;47.554;8.504;2022-10-16T06:48:37;382.45;;;23.65;;
73938;SDS011;62291;47.554;8.504;2022-10-16T06:53:35;296.92;;;18.90;;
73938;SDS011;62291;47.554;8.504;2022-10-16T06:56:11;399.00;;;19.80;;
73938;SDS011;62291;47.554;8.504;2022-10-16T06:58:39;591.60;;;26.23;;
73938;SDS011;62291;47.554;8.504;2022-10-16T07:01:06;870.60;;;33.85;;
73938;SDS011;62291;47.554;8.504;2022-10-16T07:03:33;815.42;;;36.95;;
73938;SDS011;62291;47.554;8.504;2022-10-16T07:06:02;170.95;;;16.02;;
73938;SDS011;62291;47.554;8.504;2022-10-16T07:08:30;718.30;;;28.48;;
73938;SDS011;62291;47.554;8.504;2022-10-16T07:10:58;818.70;;;35.80;;
73938;SDS011;62291;47.554;8.504;2022-10-16T07:13:25;795.85;;;31.85;;
73938;SDS011;62291;47.554;8.504;2022-10-16T07:15:51;562.75;;;27.15;;
73938;SDS011;62291;47.554;8.504;2022-10-16T07:18:16;464.33;;;22.80;;
73938;SDS011;62291;47.554;8.504;2022-10-16T07:20:42;607.33;;;27.40;;
73938;SDS011;62291;47.554;8.504;2022-10-16T07:23:08;590.75;;;27.73;;
73938;SDS011;62291;47.554;8.504;2022-10-16T07:25:33;341.88;;;18.75;;
73938;SDS011;62291;47.554;8.504;2022-10-16T07:27:59;407.90;;;19.05;;
73938;SDS011;62291;47.554;8.504;2022-10-16T07:30:25;166.70;;;10.43;;
73938;SDS011;62291;47.554;8.504;2022-10-16T07:32:51;66.38;;;7.20;;
73938;SDS011;62291;47.554;8.504;2022-10-16T07:35:16;276.25;;;13.15;;
73938;SDS011;62291;47.554;8.504;2022-10-16T07:37:46;325.48;;;14.00;;
73938;SDS011;62291;47.554;8.504;2022-10-16T07:40:11;71.28;;;5.47;;
73938;SDS011;62291;47.554;8.504;2022-10-16T07:42:37;439.98;;;16.25;;
73938;SDS011;62291;47.554;8.504;2022-10-16T07:45:03;107.00;;;6.22;;
73938;SDS011;62291;47.554;8.504;2022-10-16T07:47:29;239.15;;;10.60;;
73938;SDS011;62291;47.554;8.504;2022-10-16T07:49:55;267.17;;;10.93;;
73938;SDS011;62291;47.554;8.504;2022-10-16T07:52:21;147.88;;;7.07;;
73938;SDS011;62291;47.554;8.504;2022-10-16T07:54:46;69.90;;;4.15;;
73938;SDS011;62291;47.554;8.504;2022-10-16T07:57:12;52.63;;;3.25;;
73938;SDS011;62291;47.554;8.504;2022-10-16T07:59:44;32.60;;;3.25;;
73938;SDS011;62291;47.554;8.504;2022-10-16T08:02:10;43.83;;;3.00;;
73938;SDS011;62291;47.554;8.504;2022-10-16T08:04:37;38.03;;;3.47;;
73938;SDS011;62291;47.554;8.504;2022-10-16T08:07:02;80.60;;;4.65;;
73938;SDS011;62291;47.554;8.504;2022-10-16T08:09:28;287.35;;;10.43;;
73938;SDS011;62291;47.554;8.504;2022-10-16T08:11:54;91.15;;;6.07;;
73938;SDS011;62291;47.554;8.504;2022-10-16T08:14:19;34.75;;;3.60;;
73938;SDS011;62291;47.554;8.504;2022-10-16T08:16:45;93.05;;;4.78;;
73938;SDS011;62291;47.554;8.504;2022-10-16T08:19:11;3.33;;;2.25;;
73938;SDS011;62291;47.554;8.504;2022-10-16T08:21:37;34.00;;;3.53;;
73938;SDS011;62291;47.554;8.504;2022-10-16T08:24:02;16.65;;;3.28;;
73938;SDS011;62291;47.554;8.504;2022-10-16T08:26:28;7.07;;;3.00;;
73938;SDS011;62291;47.554;8.504;2022-10-16T08:28:54;5.13;;;2.13;;
73938;SDS011;62291;47.554;8.504;2022-10-16T08:31:21;12.30;;;3.20;;
73938;SDS011;62291;47.554;8.504;2022-10-16T08:33:46;22.75;;;4.13;;
73938;SDS011;62291;47.554;8.504;2022-10-16T08:36:12;33.03;;;4.65;;
73938;SDS011;62291;47.554;8.504;2022-10-16T08:38:40;7.85;;;3.20;;
73938;SDS011;62291;47.554;8.504;2022-10-16T08:46:46;5.93;;;3.47;;
73938;SDS011;62291;47.554;8.504;2022-10-16T08:49:20;5.65;;;3.45;;
73938;SDS011;62291;47.554;8.504;2022-10-16T08:51:49;4.30;;;3.88;;
73938;SDS011;62291;47.554;8.504;2022-10-16T08:54:28;4.72;;;3.60;;
73938;SDS011;62291;47.554;8.504;2022-10-16T08:57:19;4.32;;;3.13;;
73938;SDS011;62291;47.554;8.504;2022-10-16T08:59:46;3.97;;;3.55;;
73938;SDS011;62291;47.554;8.504;2022-10-16T09:12:48;5.97;;;2.15;;
73938;SDS011;62291;47.554;8.504;2022-10-16T09:21:41;6.25;;;4.20;;
73938;SDS011;62291;47.554;8.504;2022-10-16T09:23:50;2.95;;;1.40;;
73938;SDS011;62291;47.554;8.504;2022-10-16T09:26:16;3.90;;;1.85;;
73938;SDS011;62291;47.554;8.504;2022-10-16T09:28:44;2.58;;;1.73;;
73938;SDS011;62291;47.554;8.504;2022-10-16T09:31:15;10.80;;;1.80;;
73938;SDS011;62291;47.554;8.504;2022-10-16T09:33:43;3.28;;;1.70;;
73938;SDS011;62291;47.554;8.504;2022-10-16T09:36:13;3.92;;;1.90;;
73938;SDS011;62291;47.554;8.504;2022-10-16T09:38:39;2.25;;;1.50;;
73938;SDS011;62291;47.554;8.504;2022-10-16T09:41:15;6.38;;;1.35;;
73938;SDS011;62291;47.554;8.504;2022-10-16T09:44:06;3.35;;;1.30;;
73938;SDS011;62291;47.554;8.504;2022-10-16T09:46:48;6.47;;;1.23;;
73938;SDS011;62291;47.554;8.504;2022-10-16T09:49:23;3.42;;;1.20;;
73938;SDS011;62291;47.554;8.504;2022-10-16T09:51:51;3.33;;;1.20;;
73938;SDS011;62291;47.554;8.504;2022-10-16T09:54:36;6.38;;;1.00;;
73938;SDS011;62291;47.554;8.504;2022-10-16T09:57:10;1.50;;;1.00;;
73938;SDS011;62291;47.554;8.504;2022-10-16T09:59:45;2.75;;;1.10;;
73938;SDS011;62291;47.554;8.504;2022-10-16T10:05:18;2.55;;;1.10;;
73938;SDS011;62291;47.554;8.504;2022-10-16T10:07:52;3.67;;;1.20;;
73938;SDS011;62291;47.554;8.504;2022-10-16T10:10:26;2.58;;;1.20;;
73938;SDS011;62291;47.554;8.504;2022-10-16T10:12:54;6.75;;;1.92;;
73938;SDS011;62291;47.554;8.504;2022-10-16T10:15:21;1.73;;;1.00;;
73938;SDS011;62291;47.554;8.504;2022-10-16T10:17:52;2.47;;;1.00;;
73938;SDS011;62291;47.554;8.504;2022-10-16T10:22:59;3.00;;;1.00;;
73938;SDS011;62291;47.554;8.504;2022-10-16T10:30:56;6.32;;;1.48;;
73938;SDS011;62291;47.554;8.504;2022-10-16T10:33:44;5.82;;;1.20;;
73938;SDS011;62291;47.554;8.504;2022-10-16T10:38:58;5.75;;;1.00;;
73938;SDS011;62291;47.554;8.504;2022-10-16T10:44:01;4.32;;;1.08;;
73938;SDS011;62291;47.554;8.504;2022-10-16T10:46:41;3.95;;;0.98;;
73938;SDS011;62291;47.554;8.504;2022-10-16T10:54:50;1.98;;;1.15;;
73938;SDS011;62291;47.554;8.504;2022-10-16T10:57:25;3.30;;;1.20;;
73938;SDS011;62291;47.554;8.504;2022-10-16T11:10:51;5.28;;;1.00;;
73938;SDS011;62291;47.554;8.504;2022-10-16T11:13:23;5.18;;;1.13;;
73938;SDS011;62291;47.554;8.504;2022-10-16T11:22:48;4.00;;;1.10;;
73938;SDS011;62291;47.554;8.504;2022-10-16T11:27:40;4.07;;;1.20;;
73938;SDS011;62291;47.554;8.504;2022-10-16T11:30:26;6.38;;;0.85;;
73938;SDS011;62291;47.554;8.504;2022-10-16T11:36:12;5.85;;;1.10;;
73938;SDS011;62291;47.554;8.504;2022-10-16T11:38:51;2.67;;;0.80;;
73938;SDS011;62291;47.554;8.504;2022-10-16T11:41:42;5.32;;;0.88;;
73938;SDS011;62291;47.554;8.504;2022-10-16T11:47:00;3.55;;;0.70;;
73938;SDS011;62291;47.554;8.504;2022-10-16T11:49:45;6.32;;;0.90;;
73938;SDS011;62291;47.554;8.504;2022-10-16T11:52:23;3.33;;;0.80;;
73938;SDS011;62291;47.554;8.504;2022-10-16T11:55:08;7.10;;;0.90;;
73938;SDS011;62291;47.554;8.504;2022-10-16T11:57:47;4.35;;;1.02;;
73938;SDS011;62291;47.554;8.504;2022-10-16T12:00:22;4.82;;;0.70;;
73938;SDS011;62291;47.554;8.504;2022-10-16T12:08:53;5.40;;;1.15;;
73938;SDS011;62291;47.554;8.504;2022-10-16T12:11:38;2.85;;;0.80;;
73938;SDS011;62291;47.554;8.504;2022-10-16T12:14:17;2.88;;;0.80;;
73938;SDS011;62291;47.554;8.504;2022-10-16T12:16:55;4.25;;;0.90;;
73938;SDS011;62291;47.554;8.504;2022-10-16T12:19:27;0.97;;;0.80;;
73938;SDS011;62291;47.554;8.504;2022-10-16T12:21:58;2.65;;;0.80;;
73938;SDS011;62291;47.554;8.504;2022-10-16T12:26:59;3.47;;;0.85;;
73938;SDS011;62291;47.554;8.504;2022-10-16T12:29:36;2.90;;;1.00;;
73938;SDS011;62291;47.554;8.504;2022-10-16T12:32:04;3.65;;;0.90;;
73938;SDS011;62291;47.554;8.504;2022-10-16T12:34:44;4.67;;;1.10;;
73938;SDS011;62291;47.554;8.504;2022-10-16T12:37:12;7.20;;;0.82;;
73938;SDS011;62291;47.554;8.504;2022-10-16T12:39:44;5.65;;;0.70;;
73938;SDS011;62291;47.554;8.504;2022-10-16T12:42:22;5.85;;;1.00;;
73938;SDS011;62291;47.554;8.504;2022-10-16T12:44:51;2.72;;;0.85;;
73938;SDS011;62291;47.554;8.504;2022-10-16T12:49:56;3.42;;;0.75;;
73938;SDS011;62291;47.554;8.504;2022-10-16T12:55:02;2.45;;;1.02;;
73938;SDS011;62291;47.554;8.504;2022-10-16T12:57:39;3.20;;;0.93;;
73938;SDS011;62291;47.554;8.504;2022-10-16T13:00:18;3.80;;;1.13;;
73938;SDS011;62291;47.554;8.504;2022-10-16T13:02:55;3.92;;;0.80;;
73938;SDS011;62291;47.554;8.504;2022-10-16T13:08:33;2.42;;;1.00;;
73938;SDS011;62291;47.554;8.504;2022-10-16T13:17:20;4.45;;;1.00;;
73938;SDS011;62291;47.554;8.504;2022-10-16T13:20:17;2.25;;;1.27;;
73938;SDS011;62291;47.554;8.504;2022-10-16T13:26:06;2.97;;;1.10;;
73938;SDS011;62291;47.554;8.504;2022-10-16T13:28:42;2.15;;;0.65;;
73938;SDS011;62291;47.554;8.504;2022-10-16T13:31:18;4.90;;;0.82;;
73938;SDS011;62291;47.554;8.504;2022-10-16T13:33:49;2.73;;;0.80;;
73938;SDS011;62291;47.554;8.504;2022-10-16T13:36:24;1.67;;;0.70;;
73938;SDS011;62291;47.554;8.504;2022-10-16T13:39:12;7.35;;;1.00;;
73938;SDS011;62291;47.554;8.504;2022-10-16T13:41:40;5.15;;;0.90;;
73938;SDS011;62291;47.554;8.504;2022-10-16T13:44:18;2.70;;;1.00;;
73938;SDS011;62291;47.554;8.504;2022-10-16T13:46:57;4.18;;;1.00;;
73938;SDS011;62291;47.554;8.504;2022-10-16T13:49:25;4.10;;;0.90;;
73938;SDS011;62291;47.554;8.504;2022-10-16T13:51:55;3.58;;;0.88;;
73938;SDS011;62291;47.554;8.504;2022-10-16T13:54:25;6.03;;;0.70;;
73938;SDS011;62291;47.554;8.504;2022-10-16T13:56:53;5.03;;;0.70;;
73938;SDS011;62291;47.554;8.504;2022-10-16T13:59:24;4.25;;;0.90;;
73938;SDS011;62291;47.554;8.504;2022-10-16T14:01:52;2.35;;;0.70;;
73938;SDS011;62291;47.554;8.504;2022-10-16T14:04:21;3.38;;;0.60;;
73938;SDS011;62291;47.554;8.504;2022-10-16T14:06:49;3.13;;;0.70;;
73938;SDS011;62291;47.554;8.504;2022-10-16T14:09:31;6.47;;;0.98;;
73938;SDS011;62291;47.554;8.504;2022-10-16T14:12:07;3.80;;;0.80;;
73938;SDS011;62291;47.554;8.504;2022-10-16T14:14:38;3.45;;;0.80;;
73938;SDS011;62291;47.554;8.504;2022-10-16T14:17:13;1.75;;;0.60;;
73938;SDS011;62291;47.554;8.504;2022-10-16T14:19:47;3.60;;;1.10;;
73938;SDS011;62291;47.554;8.504;2022-10-16T14:28:01;2.05;;;0.60;;
73938;SDS011;62291;47.554;8.504;2022-10-16T14:30:30;2.10;;;0.70;;
73938;SDS011;62291;47.554;8.504;2022-10-16T14:33:04;1.88;;;0.85;;
73938;SDS011;62291;47.554;8.504;2022-10-16T14:35:44;3.85;;;0.80;;
73938;SDS011;62291;47.554;8.504;2022-10-16T14:38:18;4.15;;;0.80;;
73938;SDS011;62291;47.554;8.504;2022-10-16T14:40:48;3.50;;;1.30;;
73938;SDS011;62291;47.554;8.504;2022-10-16T14:43:20;4.47;;;0.90;;
73938;SDS011;62291;47.554;8.504;2022-10-16T14:45:54;2.17;;;0.80;;
73938;SDS011;62291;47.554;8.504;2022-10-16T14:48:21;3.20;;;0.70;;
73938;SDS011;62291;47.554;8.504;2022-10-16T14:50:47;10.00;;;1.10;;
73938;SDS011;62291;47.554;8.504;2022-10-16T14:53:13;1.77;;;0.68;;
73938;SDS011;62291;47.554;8.504;2022-10-16T14:55:39;1.10;;;0.68;;
73938;SDS011;62291;47.554;8.504;2022-10-16T14:58:09;3.40;;;0.70;;
73938;SDS011;62291;47.554;8.504;2022-10-16T15:00:44;3.80;;;0.70;;
73938;SDS011;62291;47.554;8.504;2022-10-16T15:03:10;3.90;;;0.70;;
73938;SDS011;62291;47.554;8.504;2022-10-16T15:05:36;5.60;;;0.80;;
73938;SDS011;62291;47.554;8.504;2022-10-16T15:08:02;6.10;;;0.90;;
73938;SDS011;62291;47.554;8.504;2022-10-16T15:10:29;5.03;;;0.80;;
73938;SDS011;62291;47.554;8.504;2022-10-16T15:12:57;3.45;;;0.90;;
73938;SDS011;62291;47.554;8.504;2022-10-16T15:18:02;4.80;;;1.67;;
73938;SDS011;62291;47.554;8.504;2022-10-16T15:20:33;5.40;;;1.00;;
73938;SDS011;62291;47.554;8.504;2022-10-16T15:23:33;4.78;;;1.05;;
73938;SDS011;62291;47.554;8.504;2022-10-16T15:25:53;2.38;;;1.15;;
73938;SDS011;62291;47.554;8.504;2022-10-16T15:28:20;4.93;;;1.23;;
73938;SDS011;62291;47.554;8.504;2022-10-16T15:30:48;5.57;;;1.08;;
73938;SDS011;62291;47.554;8.504;2022-10-16T15:33:28;4.30;;;0.93;;
73938;SDS011;62291;47.554;8.504;2022-10-16T15:35:58;3.50;;;1.20;;
73938;SDS011;62291;47.554;8.504;2022-10-16T15:38:24;6.13;;;1.00;;
73938;SDS011;62291;47.554;8.504;2022-10-16T15:40:51;2.83;;;0.90;;
73938;SDS011;62291;47.554;8.504;2022-10-16T15:43:17;5.15;;;0.98;;
73938;SDS011;62291;47.554;8.504;2022-10-16T15:45:43;2.08;;;0.80;;
73938;SDS011;62291;47.554;8.504;2022-10-16T15:48:12;4.10;;;0.98;;
73938;SDS011;62291;47.554;8.504;2022-10-16T15:50:38;5.65;;;1.00;;
73938;SDS011;62291;47.554;8.504;2022-10-16T15:53:04;4.22;;;1.10;;
73938;SDS011;62291;47.554;8.504;2022-10-16T15:55:30;7.63;;;1.13;;
73938;SDS011;62291;47.554;8.504;2022-10-16T15:57:56;4.72;;;0.82;;
73938;SDS011;62291;47.554;8.504;2022-10-16T16:00:22;6.90;;;1.20;;
73938;SDS011;62291;47.554;8.504;2022-10-16T16:02:51;4.22;;;1.10;;
73938;SDS011;62291;47.554;8.504;2022-10-16T16:05:18;4.72;;;1.30;;
73938;SDS011;62291;47.554;8.504;2022-10-16T16:07:44;10.18;;;1.00;;
73938;SDS011;62291;47.554;8.504;2022-10-16T16:10:10;6.80;;;1.17;;
73938;SDS011;62291;47.554;8.504;2022-10-16T16:12:37;4.35;;;0.88;;
73938;SDS011;62291;47.554;8.504;2022-10-16T16:15:04;4.30;;;1.27;;
73938;SDS011;62291;47.554;8.504;2022-10-16T16:17:32;3.03;;;1.17;;
73938;SDS011;62291;47.554;8.504;2022-10-16T16:19:58;17.52;;;4.00;;
73938;SDS011;62291;47.554;8.504;2022-10-16T16:22:24;9.07;;;1.30;;
73938;SDS011;62291;47.554;8.504;2022-10-16T16:24:50;3.80;;;1.65;;
73938;SDS011;62291;47.554;8.504;2022-10-16T16:27:16;5.45;;;1.05;;
73938;SDS011;62291;47.554;8.504;2022-10-16T16:29:41;9.80;;;1.45;;
73938;SDS011;62291;47.554;8.504;2022-10-16T16:32:07;10.05;;;1.55;;
73938;SDS011;62291;47.554;8.504;2022-10-16T16:34:33;7.68;;;1.50;;
73938;SDS011;62291;47.554;8.504;2022-10-16T16:36:59;5.45;;;1.50;;
73938;SDS011;62291;47.554;8.504;2022-10-16T16:39:25;13.88;;;1.30;;
73938;SDS011;62291;47.554;8.504;2022-10-16T16:41:51;10.98;;;2.13;;
73938;SDS011;62291;47.554;8.504;2022-10-16T16:44:17;6.07;;;1.60;;
73938;SDS011;62291;47.554;8.504;2022-10-16T16:46:43;8.88;;;1.75;;
73938;SDS011;62291;47.554;8.504;2022-10-16T16:49:10;8.13;;;1.45;;